Time;durP1;ratioP1;P1;durP2;ratioP2;P2;SDS_P1;SDS_P2;PMS_P1;PMS_P2;Temp;Humidity;BMP_temperature;BMP_pressure;BME280_temperature;BME280_humidity;BME280_pressure;Samples;Min_cycle;Max_cycle;Signal;HPM_P1;HPM_P2
2023/03/05 00:00:13;;;;;;;6.97;6.28;;;;;;;;;;5035215;28;20045;-89
2023/03/05 00:02:42;;;;;;;3.60;3.30;;;;;;;;;;5049882;28;20048;-89
2023/03/05 00:05:08;;;;;;;5.28;4.88;;;;;;;;;;5054536;28;20205;-89
2023/03/05 00:07:35;;;;;;;4.30;4.05;;;;;;;;;;5054503;28;20049;-89
2023/03/05 00:10:02;;;;;;;5.65;5.18;;;;;;;;;;5054608;28;20102;-89
2023/03/05 00:12:28;;;;;;;5.82;5.50;;;;;;;;;;5054358;28;20053;-89
2023/03/05 00:14:55;;;;;;;4.85;4.38;;;;;;;;;;5054353;28;20098;-89
2023/03/05 00:17:21;;;;;;;5.97;5.57;;;;;;;;;;5054300;28;20099;-88
2023/03/05 00:19:49;;;;;;;6.35;5.75;;;;;;;;;;5042555;28;20045;-89
2023/03/05 00:22:17;;;;;;;5.72;4.07;;;;;;;;;;5034284;28;20499;-89
2023/03/05 00:24:43;;;;;;;4.18;3.85;;;;;;;;;;5034793;28;20107;-90
2023/03/05 00:27:10;;;;;;;5.82;5.38;;;;;;;;;;5034590;28;20049;-90
2023/03/05 00:29:36;;;;;;;4.95;4.47;;;;;;;;;;5033999;28;20056;-89
2023/03/05 00:32:03;;;;;;;4.97;4.68;;;;;;;;;;5034545;28;20195;-89
2023/03/05 00:34:30;;;;;;;7.57;5.28;;;;;;;;;;5034292;28;20111;-89
2023/03/05 00:36:58;;;;;;;4.25;4.00;;;;;;;;;;5038265;28;20056;-89
2023/03/05 00:39:24;;;;;;;6.03;5.55;;;;;;;;;;5034231;28;20115;-90
2023/03/05 00:41:51;;;;;;;2.72;2.53;;;;;;;;;;5033964;28;20446;-90
2023/03/05 00:44:18;;;;;;;4.00;3.70;;;;;;;;;;5033906;28;20558;-90
2023/03/05 00:46:44;;;;;;;4.53;3.53;;;;;;;;;;5034173;28;20103;-90
2023/03/05 00:49:11;;;;;;;6.43;5.90;;;;;;;;;;5034198;28;20053;-89
2023/03/05 00:51:37;;;;;;;4.32;4.03;;;;;;;;;;5033624;28;20053;-90
2023/03/05 00:54:05;;;;;;;4.72;4.35;;;;;;;;;;5044782;28;20445;-89
2023/03/05 00:56:32;;;;;;;5.50;5.00;;;;;;;;;;5053670;28;20544;-90
2023/03/05 00:58:58;;;;;;;4.95;4.63;;;;;;;;;;5053743;28;20779;-89
2023/03/05 01:01:25;;;;;;;5.60;5.13;;;;;;;;;;5054768;28;20049;-89
2023/03/05 01:03:51;;;;;;;10.68;4.35;;;;;;;;;;5053457;28;20049;-90
2023/03/05 01:06:18;;;;;;;4.97;4.60;;;;;;;;;;5038391;28;20045;-89
2023/03/05 01:08:45;;;;;;;5.07;4.35;;;;;;;;;;5033670;28;20095;-89
2023/03/05 01:11:13;;;;;;;6.00;4.43;;;;;;;;;;5033701;28;20087;-89
2023/03/05 01:13:40;;;;;;;6.45;5.47;;;;;;;;;;5033594;28;20053;-89
2023/03/05 01:16:07;;;;;;;8.70;8.10;;;;;;;;;;5033625;28;20049;-89
2023/03/05 01:18:33;;;;;;;5.78;5.22;;;;;;;;;;5033742;28;20132;-90
2023/03/05 01:21:00;;;;;;;5.22;4.82;;;;;;;;;;5033374;28;20418;-89
2023/03/05 01:23:26;;;;;;;6.82;4.95;;;;;;;;;;5033185;28;20107;-91
2023/03/05 01:25:56;;;;;;;5.75;5.03;;;;;;;;;;5033661;28;20049;-91
2023/03/05 01:28:25;;;;;;;5.00;4.72;;;;;;;;;;5033179;28;20049;-90
2023/03/05 01:30:51;;;;;;;4.35;3.92;;;;;;;;;;5045527;28;20053;-89
2023/03/05 01:33:18;;;;;;;7.47;5.90;;;;;;;;;;5053417;28;20045;-89
2023/03/05 01:35:45;;;;;;;4.20;3.80;;;;;;;;;;5053314;28;20414;-90
2023/03/05 01:38:12;;;;;;;3.30;3.00;;;;;;;;;;5051056;28;21320;-90
2023/03/05 01:40:38;;;;;;;4.55;4.25;;;;;;;;;;5053175;28;20049;-90
2023/03/05 01:43:16;;;;;;;8.07;4.47;;;;;;;;;;5052692;28;20041;-90
2023/03/05 01:45:57;;;;;;;4.65;3.85;;;;;;;;;;5053214;28;20048;-90
2023/03/05 01:48:25;;;;;;;5.28;4.65;;;;;;;;;;5051874;28;20095;-90
2023/03/05 01:50:52;;;;;;;4.35;4.13;;;;;;;;;;5053132;28;20049;-90
2023/03/05 01:53:18;;;;;;;5.68;5.18;;;;;;;;;;5053225;28;20049;-90
2023/03/05 01:55:45;;;;;;;7.25;6.03;;;;;;;;;;5043427;28;20053;-90
2023/03/05 01:58:12;;;;;;;5.40;5.03;;;;;;;;;;5032730;28;20564;-89
2023/03/05 02:00:41;;;;;;;6.28;5.35;;;;;;;;;;5033046;28;20049;-90
2023/03/05 02:03:09;;;;;;;6.43;5.97;;;;;;;;;;5032681;28;20103;-90
2023/03/05 02:05:38;;;;;;;11.35;5.70;;;;;;;;;;5036775;28;20054;-90
2023/03/05 02:08:05;;;;;;;6.70;6.18;;;;;;;;;;5036739;28;20049;-90
2023/03/05 02:10:33;;;;;;;5.25;4.65;;;;;;;;;;5036819;28;20107;-89
2023/03/05 02:13:01;;;;;;;6.38;5.90;;;;;;;;;;5036873;28;20054;-90
2023/03/05 02:15:28;;;;;;;5.90;5.25;;;;;;;;;;5054908;28;20048;-89
2023/03/05 02:17:55;;;;;;;7.55;4.63;;;;;;;;;;5056483;28;20053;-89
2023/03/05 02:20:22;;;;;;;3.53;2.63;;;;;;;;;;5053380;28;20499;-89
2023/03/05 02:22:50;;;;;;;6.43;5.88;;;;;;;;;;5036498;28;20556;-90
2023/03/05 02:25:18;;;;;;;9.13;4.60;;;;;;;;;;5036589;28;20053;-90
2023/03/05 02:27:50;;;;;;;4.07;3.78;;;;;;;;;;5036675;28;20413;-89
2023/03/05 02:30:17;;;;;;;6.30;3.67;;;;;;;;;;5036838;28;20407;-89
2023/03/05 02:32:44;;;;;;;8.73;8.10;;;;;;;;;;5037924;28;20049;-90
2023/03/05 02:35:10;;;;;;;8.20;7.68;;;;;;;;;;5036392;28;20103;-90
2023/03/05 02:37:37;;;;;;;6.85;5.95;;;;;;;;;;5036637;28;20115;-90
2023/03/05 02:40:05;;;;;;;5.47;5.07;;;;;;;;;;5036588;28;20107;-90
2023/03/05 02:42:32;;;;;;;7.80;7.38;;;;;;;;;;5036233;28;20075;-90
2023/03/05 02:44:59;;;;;;;4.20;3.85;;;;;;;;;;5036360;28;20058;-89
2023/03/05 02:47:25;;;;;;;7.00;4.63;;;;;;;;;;5041751;28;20097;-89
2023/03/05 02:49:52;;;;;;;4.38;3.97;;;;;;;;;;5056051;28;20538;-91
2023/03/05 02:52:18;;;;;;;7.65;5.95;;;;;;;;;;5056262;28;20049;-90
2023/03/05 02:54:45;;;;;;;4.70;3.55;;;;;;;;;;5055948;28;20049;-90
2023/03/05 02:57:13;;;;;;;9.77;6.53;;;;;;;;;;5056061;28;20114;-90
2023/03/05 02:59:39;;;;;;;3.97;3.72;;;;;;;;;;5055654;28;20544;-89
2023/03/05 03:02:05;;;;;;;6.35;4.13;;;;;;;;;;5055904;28;20410;-89
2023/03/05 03:04:32;;;;;;;5.82;5.25;;;;;;;;;;5055449;28;20107;-89
2023/03/05 03:06:58;;;;;;;4.97;4.63;;;;;;;;;;5039370;28;20050;-89
2023/03/05 03:09:25;;;;;;;7.00;6.45;;;;;;;;;;5035791;28;20046;-89
2023/03/05 03:11:52;;;;;;;8.27;7.68;;;;;;;;;;5035975;28;20042;-90
2023/03/05 03:14:20;;;;;;;8.57;4.93;;;;;;;;;;5035544;28;20045;-89
2023/03/05 03:16:47;;;;;;;5.47;5.13;;;;;;;;;;5034850;28;20049;-90
2023/03/05 03:19:13;;;;;;;6.22;5.60;;;;;;;;;;5035892;28;20107;-90
2023/03/05 03:21:40;;;;;;;6.35;5.75;;;;;;;;;;5035430;28;20160;-90
2023/03/05 03:24:06;;;;;;;6.45;5.60;;;;;;;;;;5042974;28;20037;-89
2023/03/05 03:26:33;;;;;;;6.70;4.95;;;;;;;;;;5055303;28;20049;-89
2023/03/05 03:28:59;;;;;;;6.18;5.07;;;;;;;;;;5055497;28;20044;-90
2023/03/05 03:31:27;;;;;;;6.95;6.32;;;;;;;;;;5055073;28;20057;-89
2023/03/05 03:33:54;;;;;;;6.57;6.05;;;;;;;;;;5055569;28;20049;-90
2023/03/05 03:36:20;;;;;;;13.95;7.63;;;;;;;;;;5055370;28;20490;-90
2023/03/05 03:38:47;;;;;;;5.05;4.65;;;;;;;;;;5055758;28;20122;-89
2023/03/05 03:41:13;;;;;;;7.30;5.03;;;;;;;;;;5055133;28;20102;-89
2023/03/05 03:43:39;;;;;;;6.47;6.03;;;;;;;;;;5053224;28;20103;-89
2023/03/05 03:46:06;;;;;;;5.38;4.97;;;;;;;;;;5054931;28;20045;-89
2023/03/05 03:48:34;;;;;;;7.05;6.55;;;;;;;;;;5054888;28;20483;-89
2023/03/05 03:51:03;;;;;;;6.70;6.18;;;;;;;;;;5054747;28;20487;-89
2023/03/05 03:53:30;;;;;;;5.70;5.30;;;;;;;;;;5054742;28;20052;-88
2023/03/05 03:55:57;;;;;;;4.72;4.32;;;;;;;;;;5054926;28;20098;-88
2023/03/05 03:58:24;;;;;;;5.22;4.75;;;;;;;;;;5054874;28;20094;-89
2023/03/05 04:00:50;;;;;;;6.35;5.72;;;;;;;;;;5053623;28;20045;-89
2023/03/05 04:03:17;;;;;;;7.63;5.57;;;;;;;;;;5054506;28;20049;-89
2023/03/05 04:05:45;;;;;;;5.43;4.97;;;;;;;;;;5054701;28;20436;-89
2023/03/05 04:08:11;;;;;;;6.80;6.18;;;;;;;;;;5049549;28;20052;-89
2023/03/05 04:10:38;;;;;;;5.03;4.55;;;;;;;;;;5042997;28;20051;-89
2023/03/05 04:13:04;;;;;;;5.35;4.95;;;;;;;;;;5054590;28;20144;-89
2023/03/05 04:15:31;;;;;;;6.25;5.28;;;;;;;;;;5053437;28;20049;-89
2023/03/05 04:17:57;;;;;;;7.63;6.85;;;;;;;;;;5051813;28;20049;-89
2023/03/05 04:20:24;;;;;;;8.88;6.43;;;;;;;;;;5054592;28;20105;-89
2023/03/05 04:22:52;;;;;;;7.75;6.60;;;;;;;;;;5053868;28;20098;-88
2023/03/05 04:25:18;;;;;;;6.03;5.53;;;;;;;;;;5054417;28;20056;-90
2023/03/05 04:27:44;;;;;;;7.00;6.40;;;;;;;;;;5053954;28;20049;-89
2023/03/05 04:30:13;;;;;;;6.78;6.07;;;;;;;;;;5054116;28;20048;-90
2023/03/05 04:32:40;;;;;;;5.20;4.90;;;;;;;;;;5053370;28;20494;-90
2023/03/05 04:35:07;;;;;;;6.03;5.30;;;;;;;;;;5054185;28;20110;-90
2023/03/05 04:37:33;;;;;;;6.70;6.07;;;;;;;;;;5054223;28;20053;-89
2023/03/05 04:40:01;;;;;;;6.72;6.13;;;;;;;;;;5053934;28;20049;-90
2023/03/05 04:42:28;;;;;;;5.53;5.22;;;;;;;;;;5054016;28;20087;-90
2023/03/05 04:44:54;;;;;;;4.95;4.63;;;;;;;;;;5053786;28;20130;-89
2023/03/05 04:47:21;;;;;;;5.97;5.57;;;;;;;;;;5053911;28;20045;-90
2023/03/05 04:49:47;;;;;;;5.60;4.75;;;;;;;;;;5053906;28;20045;-89
2023/03/05 04:52:14;;;;;;;5.25;4.97;;;;;;;;;;5050171;28;20053;-89
2023/03/05 04:54:41;;;;;;;6.93;6.32;;;;;;;;;;5053556;28;20079;-89
2023/03/05 04:57:09;;;;;;;6.18;5.68;;;;;;;;;;5053747;28;20102;-89
2023/03/05 04:59:36;;;;;;;7.55;6.95;;;;;;;;;;5053443;28;20049;-89
2023/03/05 05:02:03;;;;;;;5.82;5.43;;;;;;;;;;5053294;28;20094;-89
2023/03/05 05:04:29;;;;;;;6.78;6.22;;;;;;;;;;5053249;28;20049;-88
2023/03/05 05:06:56;;;;;;;5.13;4.63;;;;;;;;;;5046180;28;20565;-88
2023/03/05 05:09:23;;;;;;;4.97;4.50;;;;;;;;;;5035008;28;20757;-89
2023/03/05 05:11:49;;;;;;;8.55;7.95;;;;;;;;;;5039177;28;20103;-89
2023/03/05 05:14:18;;;;;;;7.63;6.18;;;;;;;;;;5053451;28;20095;-90
2023/03/05 05:16:44;;;;;;;7.05;6.55;;;;;;;;;;5053521;28;20494;-90
2023/03/05 05:19:11;;;;;;;9.77;9.02;;;;;;;;;;5053847;28;20099;-90
2023/03/05 05:21:37;;;;;;;6.20;5.60;;;;;;;;;;5053719;28;20041;-90
2023/03/05 05:24:04;;;;;;;7.07;6.45;;;;;;;;;;5053423;28;20120;-89
2023/03/05 05:26:30;;;;;;;6.53;6.07;;;;;;;;;;5048491;28;20103;-90
2023/03/05 05:28:57;;;;;;;4.90;4.45;;;;;;;;;;5053574;28;20056;-89
2023/03/05 05:31:25;;;;;;;7.95;5.40;;;;;;;;;;5053284;28;20049;-90
2023/03/05 05:33:51;;;;;;;5.13;4.80;;;;;;;;;;5053126;28;20095;-89
2023/03/05 05:36:18;;;;;;;6.22;5.13;;;;;;;;;;5052759;28;20831;-89
2023/03/05 05:38:45;;;;;;;9.45;7.28;;;;;;;;;;5032608;28;20099;-90
2023/03/05 05:41:13;;;;;;;9.13;8.30;;;;;;;;;;5035030;28;20111;-90
2023/03/05 05:43:40;;;;;;;5.97;5.47;;;;;;;;;;5052707;28;20053;-90
2023/03/05 05:46:07;;;;;;;5.43;5.07;;;;;;;;;;5053166;28;20045;-89
2023/03/05 05:48:36;;;;;;;6.75;6.15;;;;;;;;;;5053273;28;20127;-90
2023/03/05 05:51:05;;;;;;;6.07;5.57;;;;;;;;;;5053018;28;20049;-90
2023/03/05 05:53:32;;;;;;;5.70;5.15;;;;;;;;;;5052968;28;20064;-90
2023/03/05 05:55:59;;;;;;;7.35;6.28;;;;;;;;;;5053180;28;20118;-89
2023/03/05 05:58:25;;;;;;;5.40;4.93;;;;;;;;;;5052642;28;20090;-89
2023/03/05 06:00:52;;;;;;;12.95;5.63;;;;;;;;;;5039687;28;20049;-89
2023/03/05 06:03:18;;;;;;;5.68;5.18;;;;;;;;;;5032600;28;20099;-89
2023/03/05 06:05:46;;;;;;;5.47;4.97;;;;;;;;;;5032977;28;20045;-89
2023/03/05 06:08:13;;;;;;;11.73;5.72;;;;;;;;;;5032918;28;20045;-89
2023/03/05 06:10:39;;;;;;;7.40;3.88;;;;;;;;;;5032792;28;20049;-90
2023/03/05 06:13:06;;;;;;;5.25;4.93;;;;;;;;;;5033794;28;20545;-90
2023/03/05 06:15:32;;;;;;;4.55;4.32;;;;;;;;;;5035076;28;20041;-90
2023/03/05 06:17:59;;;;;;;7.13;6.57;;;;;;;;;;5050849;28;20106;-89
2023/03/05 06:20:26;;;;;;;5.80;4.97;;;;;;;;;;5053064;28;20040;-90
2023/03/05 06:22:54;;;;;;;7.45;6.90;;;;;;;;;;5052734;28;20053;-89
2023/03/05 06:25:20;;;;;;;7.78;5.35;;;;;;;;;;5052746;28;20110;-89
2023/03/05 06:27:47;;;;;;;7.85;7.15;;;;;;;;;;5052635;28;20130;-89
2023/03/05 06:30:14;;;;;;;4.07;3.80;;;;;;;;;;5052167;28;20057;-89
2023/03/05 06:32:40;;;;;;;7.13;5.88;;;;;;;;;;5049829;28;20615;-89
2023/03/05 06:35:07;;;;;;;6.40;5.95;;;;;;;;;;5052456;28;20048;-89
2023/03/05 06:37:34;;;;;;;5.90;5.40;;;;;;;;;;5052583;28;20075;-89
2023/03/05 06:40:04;;;;;;;5.78;4.72;;;;;;;;;;5052681;28;20056;-89
2023/03/05 06:42:30;;;;;;;4.90;4.55;;;;;;;;;;5042038;28;20414;-89
2023/03/05 06:44:57;;;;;;;4.70;4.45;;;;;;;;;;5052091;28;20091;-90
2023/03/05 06:47:23;;;;;;;6.25;5.65;;;;;;;;;;5052746;28;20387;-94
2023/03/05 06:49:50;;;;;;;8.45;7.60;;;;;;;;;;5050293;28;20041;-96
2023/03/05 06:52:16;;;;;;;8.05;7.28;;;;;;;;;;5056580;28;20048;-92
2023/03/05 06:54:43;;;;;;;5.82;5.43;;;;;;;;;;5054424;28;20049;-89
2023/03/05 06:57:12;;;;;;;6.60;6.13;;;;;;;;;;5055354;28;20559;-89
2023/03/05 06:59:38;;;;;;;5.45;4.97;;;;;;;;;;5055819;28;20049;-90
2023/03/05 07:02:05;;;;;;;4.35;3.95;;;;;;;;;;5050998;28;20620;-89
2023/03/05 07:04:32;;;;;;;7.97;7.18;;;;;;;;;;5055509;28;20049;-89
2023/03/05 07:06:59;;;;;;;6.97;6.38;;;;;;;;;;5055301;28;20098;-91
2023/03/05 07:09:25;;;;;;;10.57;4.05;;;;;;;;;;5055436;28;20053;-89
2023/03/05 07:11:52;;;;;;;24.55;6.32;;;;;;;;;;5055259;28;20103;-89
2023/03/05 07:14:20;;;;;;;7.18;6.40;;;;;;;;;;5035572;28;20057;-89
2023/03/05 07:16:46;;;;;;;5.35;4.93;;;;;;;;;;5035126;28;20379;-90
2023/03/05 07:19:13;;;;;;;5.05;4.75;;;;;;;;;;5057048;28;20046;-89
2023/03/05 07:21:39;;;;;;;6.70;6.20;;;;;;;;;;5044969;28;20107;-89
2023/03/05 07:24:07;;;;;;;7.28;6.60;;;;;;;;;;5054532;28;20049;-90
2023/03/05 07:26:33;;;;;;;5.30;4.85;;;;;;;;;;5054495;28;20045;-89
2023/03/05 07:29:00;;;;;;;8.43;7.28;;;;;;;;;;5046328;28;20049;-90
2023/03/05 07:31:30;;;;;;;10.45;7.30;;;;;;;;;;5054181;28;20107;-89
2023/03/05 07:33:57;;;;;;;6.95;6.60;;;;;;;;;;5054593;28;20060;-89
2023/03/05 07:36:24;;;;;;;5.40;5.07;;;;;;;;;;5051448;28;20049;-90
2023/03/05 07:38:50;;;;;;;7.10;6.65;;;;;;;;;;5034575;28;20049;-89
2023/03/05 07:41:19;;;;;;;5.38;4.97;;;;;;;;;;5034538;28;20053;-89
2023/03/05 07:43:46;;;;;;;4.10;3.88;;;;;;;;;;5035056;28;20045;-89
2023/03/05 07:46:14;;;;;;;6.60;6.18;;;;;;;;;;5034449;28;20577;-89
2023/03/05 07:48:42;;;;;;;7.88;7.38;;;;;;;;;;5034860;28;20107;-89
2023/03/05 07:51:10;;;;;;;8.13;7.30;;;;;;;;;;5034483;28;20053;-88
2023/03/05 07:53:37;;;;;;;7.63;6.63;;;;;;;;;;5037560;28;20069;-89
2023/03/05 07:56:03;;;;;;;5.68;5.28;;;;;;;;;;5033763;28;20103;-89
2023/03/05 07:58:30;;;;;;;9.23;8.25;;;;;;;;;;5044574;28;20118;-90
2023/03/05 08:00:56;;;;;;;10.65;9.55;;;;;;;;;;5037512;28;20107;-90
2023/03/05 08:03:23;;;;;;;7.70;7.20;;;;;;;;;;5033121;28;20042;-94
2023/03/05 08:05:51;;;;;;;9.45;8.18;;;;;;;;;;5034341;28;20053;-93
2023/03/05 08:08:17;;;;;;;6.43;6.00;;;;;;;;;;5042560;28;20128;-92
2023/03/05 08:10:44;;;;;;;7.82;7.32;;;;;;;;;;5041917;28;20050;-93
2023/03/05 08:13:10;;;;;;;9.88;8.65;;;;;;;;;;5042754;28;20049;-88
2023/03/05 08:15:37;;;;;;;10.10;9.20;;;;;;;;;;5051415;28;20056;-90
2023/03/05 08:18:04;;;;;;;9.05;7.50;;;;;;;;;;5052308;28;20044;-90
2023/03/05 08:20:31;;;;;;;8.52;7.80;;;;;;;;;;5039603;28;20049;-89
2023/03/05 08:22:59;;;;;;;7.63;6.43;;;;;;;;;;5036696;28;20717;-89
2023/03/05 08:25:26;;;;;;;14.23;8.15;;;;;;;;;;5047125;28;20403;-90
2023/03/05 08:27:53;;;;;;;7.03;6.38;;;;;;;;;;5035460;28;20045;-90
2023/03/05 08:30:21;;;;;;;5.30;4.95;;;;;;;;;;5035305;28;20060;-91
2023/03/05 08:32:48;;;;;;;17.75;9.50;;;;;;;;;;5051964;28;20384;-89
2023/03/05 08:35:15;;;;;;;7.75;6.93;;;;;;;;;;5049431;28;20037;-91
2023/03/05 08:37:41;;;;;;;6.22;5.63;;;;;;;;;;5053698;28;20102;-89
2023/03/05 08:40:10;;;;;;;8.70;7.82;;;;;;;;;;5053427;28;20083;-90
2023/03/05 08:42:37;;;;;;;9.00;8.20;;;;;;;;;;5050993;28;20127;-91
2023/03/05 08:45:03;;;;;;;6.90;6.40;;;;;;;;;;5053130;28;20052;-91
2023/03/05 08:47:30;;;;;;;6.53;6.03;;;;;;;;;;5038039;28;20084;-90
2023/03/05 08:49:57;;;;;;;6.18;5.78;;;;;;;;;;5052583;28;20049;-92
2023/03/05 08:52:23;;;;;;;6.45;5.88;;;;;;;;;;5054117;28;20052;-90
2023/03/05 08:54:50;;;;;;;6.22;5.72;;;;;;;;;;5053489;28;20045;-90
2023/03/05 08:57:18;;;;;;;7.78;7.28;;;;;;;;;;5047310;28;20045;-90
2023/03/05 08:59:44;;;;;;;3.72;3.55;;;;;;;;;;5044428;28;20049;-90
2023/03/05 09:02:12;;;;;;;5.03;4.65;;;;;;;;;;5047593;28;20049;-90
2023/03/05 09:04:38;;;;;;;6.75;5.57;;;;;;;;;;5049180;28;20049;-90
2023/03/05 09:07:05;;;;;;;11.52;8.20;;;;;;;;;;5052604;28;20482;-89
2023/03/05 09:09:32;;;;;;;4.47;4.07;;;;;;;;;;5053052;28;20049;-90
2023/03/05 09:11:58;;;;;;;7.43;6.22;;;;;;;;;;5052982;28;20099;-89
2023/03/05 09:14:27;;;;;;;5.00;4.55;;;;;;;;;;5051932;28;20391;-90
2023/03/05 09:16:53;;;;;;;4.40;4.13;;;;;;;;;;5053084;28;20502;-90
2023/03/05 09:19:20;;;;;;;6.25;5.63;;;;;;;;;;5049360;28;20103;-89
2023/03/05 09:21:46;;;;;;;8.25;5.32;;;;;;;;;;5052938;28;20098;-90
2023/03/05 09:24:13;;;;;;;8.73;8.13;;;;;;;;;;5052383;28;20041;-89
2023/03/05 09:26:41;;;;;;;6.45;5.97;;;;;;;;;;5052704;28;20552;-90
2023/03/05 09:29:07;;;;;;;4.90;4.65;;;;;;;;;;5039013;28;20072;-90
2023/03/05 09:31:35;;;;;;;6.03;5.53;;;;;;;;;;5033294;28;20059;-90
2023/03/05 09:34:02;;;;;;;6.45;5.90;;;;;;;;;;5033333;28;20053;-90
2023/03/05 09:36:29;;;;;;;7.53;5.72;;;;;;;;;;5037171;28;20049;-90
2023/03/05 09:38:56;;;;;;;4.15;3.88;;;;;;;;;;5045688;28;20052;-90
2023/03/05 09:41:26;;;;;;;3.80;3.60;;;;;;;;;;5053776;28;20099;-90
2023/03/05 09:43:57;;;;;;;6.60;6.10;;;;;;;;;;5049359;28;20154;-90
2023/03/05 09:46:29;;;;;;;7.20;5.22;;;;;;;;;;5060620;28;20106;-90
2023/03/05 09:49:00;;;;;;;8.93;8.23;;;;;;;;;;5060586;28;20049;-89
2023/03/05 09:51:29;;;;;;;12.57;7.85;;;;;;;;;;5055972;28;20045;-90
2023/03/05 09:54:01;;;;;;;9.07;8.32;;;;;;;;;;5055047;28;20457;-89
2023/03/05 09:56:29;;;;;;;5.00;4.60;;;;;;;;;;5043759;28;20084;-89
2023/03/05 09:58:58;;;;;;;9.32;6.05;;;;;;;;;;5049124;28;20053;-94
2023/03/05 10:01:28;;;;;;;8.10;7.53;;;;;;;;;;5051385;28;20103;-93
2023/03/05 10:03:57;;;;;;;6.85;6.22;;;;;;;;;;5046186;28;20487;-94
2023/03/05 10:06:26;;;;;;;6.63;6.13;;;;;;;;;;5058494;28;20079;-96
2023/03/05 10:08:55;;;;;;;5.40;5.07;;;;;;;;;;5049763;28;20049;-91
2023/03/05 10:11:30;;;;;;;3.83;3.63;;;;;;;;;;5033410;28;20053;-92
2023/03/05 10:13:57;;;;;;;6.70;6.13;;;;;;;;;;5040776;28;20106;-92
2023/03/05 10:16:45;;;;;;;7.82;7.18;;;;;;;;;;5053909;28;20106;-93
2023/03/05 10:19:15;;;;;;;8.52;7.63;;;;;;;;;;5048856;28;20079;-92
2023/03/05 10:21:46;;;;;;;7.03;6.43;;;;;;;;;;5034984;28;20046;-91
2023/03/05 10:24:16;;;;;;;4.80;4.40;;;;;;;;;;5032978;28;20053;-91
2023/03/05 10:26:47;;;;;;;3.92;3.63;;;;;;;;;;5056870;28;20103;-92
2023/03/05 10:29:20;;;;;;;10.18;8.30;;;;;;;;;;5057694;28;20049;-92
2023/03/05 10:31:52;;;;;;;6.85;4.07;;;;;;;;;;5056843;28;20422;-92
2023/03/05 10:34:32;;;;;;;6.50;5.03;;;;;;;;;;5056598;28;20044;-91
2023/03/05 10:37:09;;;;;;;7.40;6.70;;;;;;;;;;5056499;28;20084;-91
2023/03/05 10:39:51;;;;;;;6.55;4.63;;;;;;;;;;5056903;28;20056;-91
2023/03/05 10:42:21;;;;;;;9.60;6.53;;;;;;;;;;5035824;28;20552;-92
2023/03/05 10:44:49;;;;;;;5.47;5.18;;;;;;;;;;5056370;28;20482;-92
2023/03/05 10:47:21;;;;;;;5.32;5.03;;;;;;;;;;5052341;28;20130;-91
2023/03/05 10:49:50;;;;;;;5.90;5.57;;;;;;;;;;5047820;28;20049;-91
2023/03/05 10:52:18;;;;;;;7.30;6.57;;;;;;;;;;5056156;28;20107;-91
2023/03/05 10:54:45;;;;;;;4.85;4.43;;;;;;;;;;5056131;28;20082;-90
2023/03/05 10:57:16;;;;;;;5.50;5.15;;;;;;;;;;5055811;28;20106;-90
2023/03/05 10:59:44;;;;;;;4.25;4.03;;;;;;;;;;5055310;28;20048;-89
2023/03/05 11:02:10;;;;;;;6.32;4.80;;;;;;;;;;5055674;28;20053;-91
2023/03/05 11:04:38;;;;;;;7.00;6.60;;;;;;;;;;5056060;28;20041;-91
2023/03/05 11:07:29;;;;;;;5.38;4.65;;;;;;;;;;5055948;28;20045;-89
2023/03/05 11:10:05;;;;;;;5.10;4.53;;;;;;;;;;5055928;28;20104;-92
2023/03/05 11:12:31;;;;;;;5.55;5.25;;;;;;;;;;5055878;28;20102;-90
2023/03/05 11:15:24;;;;;;;4.70;4.40;;;;;;;;;;5055494;28;20498;-90
2023/03/05 11:18:04;;;;;;;8.45;7.63;;;;;;;;;;5035801;28;20065;-91
2023/03/05 11:20:32;;;;;;;5.65;5.13;;;;;;;;;;5035771;28;20050;-94
2023/03/05 11:23:03;;;;;;;6.53;6.03;;;;;;;;;;5035965;28;20053;-92
2023/03/05 11:25:32;;;;;;;7.43;6.93;;;;;;;;;;5035758;28;20049;-91
2023/03/05 11:28:00;;;;;;;6.65;6.18;;;;;;;;;;5035364;28;20545;-91
2023/03/05 11:30:27;;;;;;;4.68;4.28;;;;;;;;;;5035184;28;20450;-92
2023/03/05 11:33:07;;;;;;;6.88;6.38;;;;;;;;;;5035929;28;20119;-93
2023/03/05 11:35:35;;;;;;;4.20;3.90;;;;;;;;;;5047361;28;20049;-89
2023/03/05 11:38:03;;;;;;;7.97;7.40;;;;;;;;;;5054361;28;20053;-89
2023/03/05 11:40:34;;;;;;;6.15;5.65;;;;;;;;;;5054381;28;20563;-89
2023/03/05 11:43:01;;;;;;;8.43;7.32;;;;;;;;;;5054861;28;20073;-89
2023/03/05 11:45:29;;;;;;;9.13;4.43;;;;;;;;;;5054581;28;20041;-88
2023/03/05 11:47:56;;;;;;;6.45;5.78;;;;;;;;;;5045719;28;20046;-88
2023/03/05 11:50:24;;;;;;;4.68;4.38;;;;;;;;;;5034701;28;20053;-88
2023/03/05 11:52:51;;;;;;;6.65;6.15;;;;;;;;;;5053482;28;20075;-88
2023/03/05 11:55:19;;;;;;;7.03;6.57;;;;;;;;;;5053893;28;20045;-88
2023/03/05 11:57:50;;;;;;;6.35;5.95;;;;;;;;;;5054498;28;20130;-88
2023/03/05 12:00:16;;;;;;;;;;;;;;;;;;5054614;28;20053;-88
2023/03/05 12:02:42;;;;;;;6.93;6.38;;;;;;;;;;5054213;28;20760;-88
2023/03/05 12:05:14;;;;;;;6.70;6.05;;;;;;;;;;5054131;28;20045;-89
2023/03/05 12:07:42;;;;;;;13.13;7.38;;;;;;;;;;5054005;28;20087;-88
2023/03/05 12:10:14;;;;;;;7.78;7.25;;;;;;;;;;5054237;28;20045;-88
2023/03/05 12:12:43;;;;;;;5.68;5.28;;;;;;;;;;5053988;28;20087;-89
2023/03/05 12:15:25;;;;;;;7.82;7.10;;;;;;;;;;5035350;28;20103;-89
2023/03/05 12:17:56;;;;;;;8.95;8.35;;;;;;;;;;5034250;28;20045;-89
2023/03/05 12:20:28;;;;;;;6.15;4.70;;;;;;;;;;5034239;28;20053;-88
2023/03/05 12:22:56;;;;;;;8.35;7.25;;;;;;;;;;5033919;28;20057;-90
2023/03/05 12:25:28;;;;;;;8.00;5.40;;;;;;;;;;5033797;28;20119;-89
2023/03/05 12:27:55;;;;;;;7.32;6.93;;;;;;;;;;5033753;28;20053;-89
2023/03/05 12:30:51;;;;;;;7.35;6.93;;;;;;;;;;5033686;28;20053;-88
2023/03/05 12:33:32;;;;;;;7.65;7.13;;;;;;;;;;4972926;28;20054;-89
2023/03/05 12:36:18;;;;;;;6.75;6.35;;;;;;;;;;4969884;28;20051;-89
2023/03/05 12:38:46;;;;;;;6.63;5.97;;;;;;;;;;4972902;28;20046;-89
2023/03/05 12:41:42;;;;;;;7.75;7.18;;;;;;;;;;4972877;28;20613;-89
2023/03/05 12:44:10;;;;;;;9.55;8.93;;;;;;;;;;4972942;28;20488;-89
2023/03/05 12:46:37;;;;;;;7.88;7.38;;;;;;;;;;4972477;28;20051;-89
2023/03/05 12:49:18;;;;;;;8.50;7.80;;;;;;;;;;4972443;28;20122;-88
2023/03/05 12:51:45;;;;;;;6.82;6.40;;;;;;;;;;4971940;28;20059;-89
2023/03/05 12:54:27;;;;;;;6.63;6.13;;;;;;;;;;4972573;28;20051;-88
2023/03/05 12:56:55;;;;;;;5.18;4.95;;;;;;;;;;4972370;28;20050;-89
2023/03/05 12:59:22;;;;;;;7.68;7.15;;;;;;;;;;4972386;28;20102;-89
2023/03/05 13:01:52;;;;;;;6.28;5.35;;;;;;;;;;4972641;28;20398;-89
2023/03/05 13:04:22;;;;;;;5.47;5.25;;;;;;;;;;4972484;28;20055;-90
2023/03/05 13:06:57;;;;;;;6.65;6.25;;;;;;;;;;4985593;28;20041;-89
2023/03/05 13:09:26;;;;;;;6.57;5.88;;;;;;;;;;5032864;28;20473;-89
2023/03/05 13:11:54;;;;;;;6.53;6.05;;;;;;;;;;5032875;28;20495;-88
2023/03/05 13:14:42;;;;;;;4.82;4.53;;;;;;;;;;5033186;28;20107;-88
2023/03/05 13:17:38;;;;;;;6.15;5.82;;;;;;;;;;5026631;28;20050;-88
2023/03/05 13:20:20;;;;;;;5.30;5.00;;;;;;;;;;4952980;29;20051;-88
2023/03/05 13:22:46;;;;;;;6.22;5.90;;;;;;;;;;4950226;28;20048;-89
2023/03/05 13:25:14;;;;;;;6.97;6.57;;;;;;;;;;4952676;29;20121;-89
2023/03/05 13:27:42;;;;;;;5.22;4.85;;;;;;;;;;4952480;29;20500;-89
2023/03/05 13:30:20;;;;;;;6.05;5.63;;;;;;;;;;4955865;28;20058;-88
2023/03/05 13:32:49;;;;;;;6.10;5.38;;;;;;;;;;4971606;28;20524;-88
2023/03/05 13:35:16;;;;;;;8.50;7.88;;;;;;;;;;4971162;28;20552;-88
2023/03/05 13:37:43;;;;;;;7.57;6.95;;;;;;;;;;4971575;28;20102;-88
2023/03/05 13:40:18;;;;;;;7.40;6.90;;;;;;;;;;4967352;28;20047;-88
2023/03/05 13:42:46;;;;;;;5.30;5.07;;;;;;;;;;4952334;29;20055;-88
2023/03/05 13:45:21;;;;;;;6.05;5.75;;;;;;;;;;4967116;28;20043;-89
2023/03/05 13:47:51;;;;;;;7.32;6.93;;;;;;;;;;4971504;28;20086;-89
2023/03/05 13:50:22;;;;;;;3.97;3.65;;;;;;;;;;4971480;28;20082;-89
2023/03/05 13:52:48;;;;;;;;;;;;;;;;;;4954599;28;20053;-89
2023/03/05 13:55:16;;;;;;;6.20;5.75;;;;;;;;;;5030231;28;20675;-88
2023/03/05 13:57:43;;;;;;;5.00;4.60;;;;;;;;;;5032543;28;20049;-89
2023/03/05 14:00:25;;;;;;;5.13;4.82;;;;;;;;;;5031981;28;20172;-88
2023/03/05 14:02:53;;;;;;;5.38;4.97;;;;;;;;;;5032393;28;20450;-89
2023/03/05 14:05:20;;;;;;;6.60;6.00;;;;;;;;;;5032410;28;20049;-88
2023/03/05 14:07:47;;;;;;;8.40;7.78;;;;;;;;;;5032094;28;20491;-88
2023/03/05 14:10:28;;;;;;;6.38;5.88;;;;;;;;;;5036026;28;20052;-88
2023/03/05 14:12:54;;;;;;;5.68;5.22;;;;;;;;;;5032294;28;20399;-88
2023/03/05 14:15:22;;;;;;;4.05;3.80;;;;;;;;;;5051634;28;20061;-88
2023/03/05 14:17:48;;;;;;;8.15;7.40;;;;;;;;;;5052323;28;20049;-88
2023/03/05 14:20:24;;;;;;;5.55;5.20;;;;;;;;;;5048011;28;20044;-88
2023/03/05 14:22:51;;;;;;;6.78;6.47;;;;;;;;;;5033389;28;20045;-88
2023/03/05 14:25:29;;;;;;;5.50;4.43;;;;;;;;;;5051894;28;20045;-89
2023/03/05 14:27:55;;;;;;;5.53;5.22;;;;;;;;;;5045477;28;20045;-90
2023/03/05 14:30:23;;;;;;;5.53;5.32;;;;;;;;;;5051747;28;20155;-89
2023/03/05 14:32:51;;;;;;;5.47;5.13;;;;;;;;;;5052473;28;20048;-89
2023/03/05 14:35:18;;;;;;;7.75;7.25;;;;;;;;;;5048537;28;20850;-89
2023/03/05 14:37:47;;;;;;;7.18;4.75;;;;;;;;;;5031916;28;20115;-89
2023/03/05 14:40:19;;;;;;;6.88;5.88;;;;;;;;;;5034608;28;20045;-89
2023/03/05 14:42:55;;;;;;;7.10;5.82;;;;;;;;;;5045699;28;20045;-89
2023/03/05 14:45:23;;;;;;;4.45;4.05;;;;;;;;;;5035033;28;20041;-89
2023/03/05 14:47:50;;;;;;;4.45;4.15;;;;;;;;;;5051826;28;19921;-89
2023/03/05 14:50:17;;;;;;;8.27;7.80;;;;;;;;;;5050779;28;20107;-89